createdAt,value
2023-02-25T00:00:29.560Z,59.80
2023-02-25T00:01:29.525Z,57.40
2023-02-25T00:02:29.561Z,44.20
2023-02-25T00:03:29.516Z,43.90
2023-02-25T00:04:29.507Z,42.50
2023-02-25T00:05:31.427Z,47.00
2023-02-25T00:06:30.782Z,41.90
2023-02-25T00:07:29.498Z,40.50
2023-02-25T00:08:29.442Z,51.90
2023-02-25T00:09:29.501Z,42.40
2023-02-25T00:10:29.429Z,49.10
2023-02-25T00:11:30.645Z,56.60
2023-02-25T00:12:29.490Z,44.50
2023-02-25T00:13:29.391Z,43.00
2023-02-25T00:14:29.401Z,37.00
2023-02-25T00:15:29.397Z,41.60
2023-02-25T00:16:29.410Z,36.10
2023-02-25T00:17:29.366Z,38.80
2023-02-25T00:18:29.332Z,38.50
2023-02-25T00:19:29.359Z,37.80
2023-02-25T00:20:29.342Z,44.50
2023-02-25T00:21:35.801Z,52.70
2023-02-25T00:22:29.288Z,55.70
2023-02-25T00:23:29.318Z,47.10
2023-02-25T00:24:29.283Z,48.90
2023-02-25T00:25:29.286Z,51.50
2023-02-25T00:26:29.258Z,44.50
2023-02-25T00:27:29.263Z,41.30
2023-02-25T00:28:29.255Z,34.20
2023-02-25T00:29:31.759Z,47.00
2023-02-25T00:30:29.247Z,45.50
2023-02-25T00:31:29.340Z,38.70
2023-02-25T00:32:29.519Z,40.80
2023-02-25T00:33:29.188Z,42.90
2023-02-25T00:34:29.176Z,52.40
2023-02-25T00:35:29.184Z,46.80
2023-02-25T00:36:29.143Z,45.30
2023-02-25T00:37:29.235Z,43.70
2023-02-25T00:38:29.144Z,45.00
2023-02-25T00:39:29.164Z,41.10
2023-02-25T00:40:29.145Z,39.50
2023-02-25T00:41:29.112Z,48.40
2023-02-25T00:42:29.148Z,40.70
2023-02-25T00:43:29.389Z,42.30
2023-02-25T00:44:29.064Z,43.80
2023-02-25T00:45:29.090Z,44.50
2023-02-25T00:46:29.096Z,50.80
2023-02-25T00:47:29.153Z,53.60
2023-02-25T00:48:29.027Z,51.20
2023-02-25T00:49:32.338Z,71.80
2023-02-25T00:50:29.037Z,57.40
2023-02-25T00:51:28.999Z,56.60
2023-02-25T00:52:29.339Z,60.40
2023-02-25T00:53:28.989Z,66.70
2023-02-25T00:54:28.982Z,65.50
2023-02-25T00:55:28.982Z,62.40
2023-02-25T00:56:28.947Z,66.40
2023-02-25T00:57:31.011Z,68.40
2023-02-25T00:58:28.933Z,90.30
2023-02-25T00:59:28.936Z,84.10
2023-02-25T01:00:28.942Z,66.60
2023-02-25T01:01:29.000Z,84.70
2023-02-25T01:02:29.482Z,75.80
2023-02-25T01:03:28.873Z,70.30
2023-02-25T01:04:28.861Z,70.50
2023-02-25T01:05:28.885Z,81.90
2023-02-25T01:06:29.944Z,86.00
2023-02-25T01:07:28.835Z,77.90
2023-02-25T01:08:28.825Z,85.30
2023-02-25T01:09:28.834Z,91.70
2023-02-25T01:10:28.823Z,88.50
2023-02-25T01:11:28.819Z,76.50
2023-02-25T01:13:40.656Z,71.30
2023-02-25T01:14:41.614Z,72.90
2023-02-25T01:15:41.666Z,71.70
2023-02-25T01:16:41.595Z,83.60
2023-02-25T01:17:41.593Z,89.40
2023-02-25T01:18:41.568Z,87.90
2023-02-25T01:19:41.560Z,80.60
2023-02-25T01:20:41.580Z,89.20
2023-02-25T01:21:41.552Z,85.10
2023-02-25T01:22:41.539Z,73.70
2023-02-25T01:23:41.529Z,65.70
2023-02-25T01:24:41.506Z,80.30
2023-02-25T01:25:41.521Z,84.30
2023-02-25T01:26:41.496Z,81.80
2023-02-25T01:27:41.486Z,81.30
2023-02-25T01:28:41.467Z,74.50
2023-02-25T01:29:41.451Z,75.40
2023-02-25T01:30:42.186Z,74.70
2023-02-25T01:31:41.699Z,69.20
2023-02-25T01:32:41.530Z,80.20
2023-02-25T01:33:41.429Z,88.20
2023-02-25T01:34:41.407Z,81.30
2023-02-25T01:35:41.394Z,85.70
2023-02-25T01:36:41.487Z,66.90
2023-02-25T01:37:41.383Z,60.10
2023-02-25T01:38:41.368Z,70.60
2023-02-25T01:39:41.375Z,65.30
2023-02-25T01:40:41.353Z,78.40
2023-02-25T01:41:41.356Z,64.00
2023-02-25T01:42:41.326Z,63.30
2023-02-25T01:43:41.334Z,58.20
2023-02-25T01:44:42.355Z,59.60
2023-02-25T01:45:41.293Z,66.90
2023-02-25T01:46:41.385Z,67.30
2023-02-25T01:47:41.369Z,66.20
2023-02-25T01:48:41.296Z,68.70
2023-02-25T01:49:41.261Z,67.70
2023-02-25T01:50:41.282Z,68.90
2023-02-25T01:51:41.276Z,66.20
2023-02-25T01:52:41.222Z,62.20
2023-02-25T01:53:41.209Z,71.40
2023-02-25T01:54:41.204Z,73.30
2023-02-25T01:55:41.198Z,73.20
2023-02-25T01:56:41.223Z,87.20
2023-02-25T01:57:41.186Z,85.50
2023-02-25T01:58:41.163Z,84.10
2023-02-25T01:59:41.156Z,86.60
2023-02-25T02:00:41.219Z,84.20
2023-02-25T02:01:41.155Z,94.60
2023-02-25T02:02:41.234Z,86.70
2023-02-25T02:03:41.118Z,87.90
2023-02-25T02:04:41.123Z,83.30
2023-02-25T02:05:41.144Z,84.50
2023-02-25T02:06:41.108Z,91.90
2023-02-25T02:07:41.062Z,101.40
2023-02-25T02:08:41.081Z,106.00
2023-02-25T02:09:41.068Z,101.90
2023-02-25T02:10:41.067Z,102.60
2023-02-25T02:11:41.049Z,101.40
2023-02-25T02:12:41.027Z,93.10
2023-02-25T02:13:41.035Z,97.00
2023-02-25T02:14:41.019Z,100.60
2023-02-25T02:15:40.996Z,100.40
2023-02-25T02:16:41.636Z,93.10
2023-02-25T02:17:40.972Z,90.80
2023-02-25T02:18:40.975Z,95.90
2023-02-25T02:19:40.954Z,100.60
2023-02-25T02:20:40.949Z,121.00
2023-02-25T02:21:40.946Z,107.40
2023-02-25T02:22:40.931Z,114.50
2023-02-25T02:23:40.914Z,120.10
2023-02-25T02:24:40.892Z,114.80
2023-02-25T02:25:40.879Z,123.70
2023-02-25T02:26:40.901Z,116.50
2023-02-25T02:27:40.880Z,121.60
2023-02-25T02:28:40.846Z,126.80
2023-02-25T02:29:40.848Z,118.10
2023-02-25T02:30:43.430Z,120.50
2023-02-25T02:31:40.992Z,113.60
2023-02-25T02:32:40.935Z,114.20
2023-02-25T02:33:40.789Z,116.10
2023-02-25T02:34:40.852Z,113.80
2023-02-25T02:35:40.773Z,117.30
2023-02-25T02:36:40.789Z,118.60
2023-02-25T02:37:40.755Z,111.70
2023-02-25T02:38:40.749Z,119.60
2023-02-25T02:39:41.234Z,110.50
2023-02-25T02:40:40.744Z,99.30
2023-02-25T02:41:40.770Z,108.40
2023-02-25T02:42:40.704Z,118.20
2023-02-25T02:43:41.931Z,112.90
2023-02-25T02:44:40.695Z,118.60
2023-02-25T02:45:40.769Z,116.70
2023-02-25T02:46:40.698Z,111.30
2023-02-25T02:47:40.651Z,120.00
2023-02-25T02:48:40.664Z,107.20
2023-02-25T02:49:40.631Z,107.70
2023-02-25T02:50:40.623Z,110.40
2023-02-25T02:51:40.638Z,112.20
2023-02-25T02:52:40.594Z,103.00
2023-02-25T02:53:40.582Z,108.00
2023-02-25T02:54:40.590Z,118.00
2023-02-25T02:55:40.560Z,120.90
2023-02-25T02:56:40.555Z,118.40
2023-02-25T02:57:48.432Z,120.80
2023-02-25T02:58:40.538Z,116.50
2023-02-25T02:59:40.543Z,106.90
2023-02-25T03:00:40.513Z,103.30
2023-02-25T03:01:40.493Z,101.10
2023-02-25T03:02:40.508Z,96.70
2023-02-25T03:03:40.538Z,97.20
2023-02-25T03:04:40.475Z,102.10
2023-02-25T03:05:40.451Z,105.60
2023-02-25T03:06:40.455Z,88.70
2023-02-25T03:07:40.481Z,101.70
2023-02-25T03:08:40.441Z,114.80
2023-02-25T03:09:40.416Z,105.80
2023-02-25T03:10:40.422Z,101.70
2023-02-25T03:11:40.402Z,95.80
2023-02-25T03:12:40.408Z,102.50
2023-02-25T03:13:40.379Z,102.20
2023-02-25T03:14:40.385Z,107.00
2023-02-25T03:15:40.372Z,102.90
2023-02-25T03:16:40.994Z,94.20
2023-02-25T03:17:40.349Z,102.70
2023-02-25T03:18:40.328Z,104.40
2023-02-25T03:19:40.309Z,98.20
2023-02-25T03:20:40.303Z,93.90
2023-02-25T03:21:40.303Z,91.40
2023-02-25T03:22:40.302Z,90.70
2023-02-25T03:23:40.272Z,79.60
2023-02-25T03:24:40.275Z,90.00
2023-02-25T03:25:46.925Z,93.60
2023-02-25T03:26:46.735Z,100.50
2023-02-25T03:27:47.982Z,93.60
2023-02-25T03:28:47.754Z,91.20
2023-02-25T03:29:46.724Z,94.60
2023-02-25T03:30:47.211Z,86.60
2023-02-25T03:31:40.362Z,92.20
2023-02-25T03:32:40.219Z,90.40
2023-02-25T03:33:40.181Z,93.30
2023-02-25T03:34:40.214Z,97.20
2023-02-25T03:35:41.348Z,110.80
2023-02-25T03:36:40.143Z,118.00
2023-02-25T03:37:40.173Z,114.10
2023-02-25T03:38:40.114Z,121.00
2023-02-25T03:39:42.442Z,132.30
2023-02-25T03:40:40.118Z,135.80
2023-02-25T03:41:40.103Z,135.80
2023-02-25T03:42:40.100Z,125.30
2023-02-25T03:43:40.116Z,117.00
2023-02-25T03:44:40.055Z,122.20
2023-02-25T03:45:40.126Z,134.80
2023-02-25T03:46:40.043Z,131.40
2023-02-25T03:47:40.116Z,123.70
2023-02-25T03:48:40.029Z,117.80
2023-02-25T03:49:40.029Z,112.80
2023-02-25T03:50:40.000Z,119.70
2023-02-25T03:51:39.990Z,122.80
2023-02-25T03:52:40.030Z,127.50
2023-02-25T03:53:40.034Z,121.40
2023-02-25T03:54:39.958Z,119.10
2023-02-25T03:55:39.966Z,112.40
2023-02-25T03:56:39.941Z,107.50
2023-02-25T03:57:40.009Z,117.80
2023-02-25T03:58:39.906Z,108.70
2023-02-25T03:59:39.916Z,111.90
2023-02-25T04:00:39.886Z,110.80
2023-02-25T04:01:39.892Z,103.30
2023-02-25T04:02:39.923Z,103.10
2023-02-25T04:03:39.885Z,108.00
2023-02-25T04:04:39.876Z,96.90
2023-02-25T04:05:39.896Z,94.80
2023-02-25T04:06:39.820Z,103.30
2023-02-25T04:07:39.847Z,103.70
2023-02-25T04:08:39.814Z,105.80
2023-02-25T04:09:39.809Z,103.60
2023-02-25T04:10:39.807Z,87.00
2023-02-25T04:11:39.771Z,92.10
2023-02-25T04:12:39.785Z,94.20
2023-02-25T04:13:39.757Z,98.00
2023-02-25T04:14:39.743Z,96.40
2023-02-25T04:15:39.813Z,88.70
2023-02-25T04:16:39.898Z,89.70
2023-02-25T04:17:39.760Z,79.50
2023-02-25T04:18:39.710Z,88.30
2023-02-25T04:19:39.696Z,91.80
2023-02-25T04:20:39.683Z,81.00
2023-02-25T04:21:39.678Z,86.40
2023-02-25T04:22:39.689Z,78.40
2023-02-25T04:23:39.652Z,85.10
2023-02-25T04:24:39.638Z,80.90
2023-02-25T04:25:39.660Z,71.80
2023-02-25T04:26:39.626Z,66.00
2023-02-25T04:27:39.642Z,64.30
2023-02-25T04:28:39.601Z,69.60
2023-02-25T04:29:39.591Z,63.70
2023-02-25T04:30:39.621Z,70.50
2023-02-25T04:31:39.820Z,66.90
2023-02-25T04:32:39.638Z,63.00
2023-02-25T04:33:39.568Z,74.10
2023-02-25T04:34:39.545Z,74.00
2023-02-25T04:35:40.149Z,74.30
2023-02-25T04:36:39.514Z,72.10
2023-02-25T04:37:39.525Z,74.10
2023-02-25T04:38:47.040Z,68.90
2023-02-25T04:39:39.490Z,65.40
2023-02-25T04:40:39.479Z,65.20
2023-02-25T04:41:39.474Z,59.90
2023-02-25T04:42:39.453Z,52.40
2023-02-25T04:43:47.089Z,57.30
2023-02-25T04:44:46.938Z,55.80
2023-02-25T04:45:45.996Z,57.00
2023-02-25T04:46:46.062Z,60.20
2023-02-25T04:47:39.425Z,50.40
2023-02-25T04:48:47.140Z,46.10
2023-02-25T04:49:47.071Z,43.40
2023-02-25T04:50:46.869Z,46.30
2023-02-25T04:51:45.890Z,52.30
2023-02-25T04:52:45.877Z,50.00
2023-02-25T04:53:47.200Z,59.30
2023-02-25T04:54:39.346Z,58.20
2023-02-25T04:55:45.857Z,52.60
2023-02-25T04:56:45.842Z,59.90
2023-02-25T04:57:45.824Z,62.30
2023-02-25T04:58:48.280Z,62.80
2023-02-25T04:59:45.813Z,53.00
2023-02-25T05:00:39.272Z,60.40
2023-02-25T05:01:45.841Z,57.30
2023-02-25T05:02:39.268Z,57.20
2023-02-25T05:03:48.618Z,50.60
2023-02-25T05:07:00.903Z,53.80
2023-02-25T05:08:09.705Z,60.50
2023-02-25T05:09:10.364Z,71.80
2023-02-25T05:10:09.390Z,62.90
2023-02-25T05:11:08.389Z,58.10
2023-02-25T05:12:08.350Z,62.20
2023-02-25T05:13:09.825Z,56.40
2023-02-25T05:14:08.327Z,60.10
2023-02-25T05:15:08.324Z,57.50
2023-02-25T05:16:08.380Z,55.70
2023-02-25T05:17:01.794Z,46.30
2023-02-25T05:18:09.384Z,47.20
2023-02-25T05:19:08.322Z,48.70
2023-02-25T05:20:08.313Z,49.10
2023-02-25T05:21:08.275Z,45.20
2023-02-25T05:22:09.244Z,47.50
2023-02-25T05:23:01.752Z,47.90
2023-02-25T05:24:01.754Z,45.40
2023-02-25T05:25:01.751Z,41.70
2023-02-25T05:26:01.714Z,44.20
2023-02-25T05:27:01.699Z,33.90
2023-02-25T05:28:01.681Z,39.20
2023-02-25T05:29:01.708Z,35.70
2023-02-25T05:30:01.786Z,37.00
2023-02-25T05:31:01.789Z,34.10
2023-02-25T05:32:03.165Z,38.00
2023-02-25T05:33:01.689Z,35.20
2023-02-25T05:34:01.638Z,32.50
2023-02-25T05:35:01.620Z,32.60
2023-02-25T05:36:01.604Z,28.70
2023-02-25T05:37:02.044Z,37.40
2023-02-25T05:38:01.597Z,39.50
2023-02-25T05:39:01.624Z,34.00
2023-02-25T05:40:01.573Z,33.40
2023-02-25T05:41:01.569Z,33.20
2023-02-25T05:42:02.184Z,34.60
2023-02-25T05:43:01.566Z,31.60
2023-02-25T05:44:01.564Z,33.70
2023-02-25T05:45:01.522Z,31.80
2023-02-25T05:46:01.584Z,24.30
2023-02-25T05:47:01.559Z,26.90
2023-02-25T05:48:01.498Z,25.40
2023-02-25T05:49:01.505Z,28.20
2023-02-25T05:50:01.471Z,30.80
2023-02-25T05:51:01.460Z,28.80
2023-02-25T05:52:01.440Z,26.90
2023-02-25T05:53:01.436Z,37.80
2023-02-25T05:54:01.468Z,44.00
2023-02-25T05:55:01.453Z,38.10
2023-02-25T05:56:01.409Z,25.00
2023-02-25T05:57:01.401Z,28.20
2023-02-25T05:58:01.382Z,26.80
2023-02-25T05:59:01.412Z,25.40
2023-02-25T06:00:01.368Z,27.70
2023-02-25T06:01:01.354Z,29.20
2023-02-25T06:02:01.405Z,30.50
2023-02-25T06:03:01.346Z,26.50
2023-02-25T06:04:01.365Z,23.10
2023-02-25T06:05:01.304Z,30.20
2023-02-25T06:06:01.281Z,32.50
2023-02-25T06:07:01.268Z,36.80
2023-02-25T06:08:01.228Z,33.60
2023-02-25T06:09:01.437Z,30.60
2023-02-25T06:10:01.211Z,36.50
2023-02-25T06:11:01.256Z,36.70
2023-02-25T06:12:01.196Z,29.70
2023-02-25T06:13:01.189Z,28.60
2023-02-25T06:14:01.198Z,32.80
2023-02-25T06:15:01.205Z,28.70
2023-02-25T06:16:01.182Z,24.50
2023-02-25T06:17:01.131Z,29.90
2023-02-25T06:18:01.135Z,32.00
2023-02-25T06:19:01.326Z,33.20
2023-02-25T06:20:01.124Z,29.50
2023-02-25T06:21:01.091Z,30.80
2023-02-25T06:22:01.101Z,30.50
2023-02-25T06:23:01.932Z,29.80
2023-02-25T06:24:01.072Z,30.70
2023-02-25T06:25:01.084Z,26.90
2023-02-25T06:26:01.048Z,29.60
2023-02-25T06:27:01.032Z,36.30
2023-02-25T06:28:01.047Z,37.00
2023-02-25T06:29:01.022Z,36.70
2023-02-25T06:30:01.032Z,32.40
2023-02-25T06:31:01.084Z,36.20
2023-02-25T06:32:02.096Z,31.10
2023-02-25T06:33:01.023Z,30.00
2023-02-25T06:34:00.985Z,28.90
2023-02-25T06:35:00.987Z,28.30
2023-02-25T06:36:00.966Z,23.50
2023-02-25T06:37:01.726Z,24.70
2023-02-25T06:38:00.941Z,30.90
2023-02-25T06:39:00.921Z,38.20
2023-02-25T06:40:00.938Z,31.50
2023-02-25T06:41:00.894Z,33.00
2023-02-25T06:42:03.359Z,30.50
2023-02-25T06:43:00.877Z,26.20
2023-02-25T06:44:00.867Z,25.70
2023-02-25T06:45:00.875Z,31.90
2023-02-25T06:46:00.891Z,29.00
2023-02-25T06:47:00.841Z,30.50
2023-02-25T06:48:00.934Z,28.80
2023-02-25T06:49:00.853Z,28.90
2023-02-25T06:50:02.560Z,32.60
2023-02-25T06:51:00.800Z,39.20
2023-02-25T06:52:00.793Z,38.50
2023-02-25T06:53:00.786Z,35.90
2023-02-25T06:54:00.783Z,39.40
2023-02-25T06:55:00.790Z,32.30
2023-02-25T06:56:00.751Z,31.30
2023-02-25T06:57:00.742Z,42.60
2023-02-25T06:58:00.740Z,51.60
2023-02-25T06:59:00.728Z,46.00
2023-02-25T07:00:00.737Z,35.80
2023-02-25T07:01:00.818Z,30.60
2023-02-25T07:02:00.695Z,35.60
2023-02-25T07:03:00.693Z,35.00
2023-02-25T07:04:00.797Z,33.90
2023-02-25T07:05:00.699Z,32.30
2023-02-25T07:06:00.666Z,38.00
2023-02-25T07:07:00.706Z,35.30
2023-02-25T07:08:00.641Z,38.60
2023-02-25T07:09:00.638Z,35.50
2023-02-25T07:10:00.639Z,37.10
2023-02-25T07:11:00.592Z,45.20
2023-02-25T07:12:00.593Z,55.60
2023-02-25T07:13:00.568Z,44.70
2023-02-25T07:14:00.568Z,36.40
2023-02-25T07:15:00.573Z,29.30
2023-02-25T07:16:00.647Z,32.70
2023-02-25T07:17:07.112Z,35.90
2023-02-25T07:19:17.263Z,48.60
2023-02-25T07:20:18.248Z,46.20
2023-02-25T07:21:24.726Z,30.50
2023-02-25T07:22:24.704Z,31.40
2023-02-25T07:23:24.702Z,38.40
2023-02-25T07:24:25.293Z,36.80
2023-02-25T07:25:26.855Z,37.70
2023-02-25T07:26:24.971Z,50.80
2023-02-25T07:27:18.154Z,44.50
2023-02-25T07:28:19.595Z,41.20
2023-02-25T07:29:18.154Z,36.00
2023-02-25T07:30:18.176Z,34.70
2023-02-25T07:31:18.200Z,35.50
2023-02-25T07:32:18.323Z,33.00
2023-02-25T07:33:18.098Z,31.90
2023-02-25T07:34:18.078Z,31.00
2023-02-25T07:35:18.124Z,33.40
2023-02-25T07:36:18.056Z,33.80
2023-02-25T07:37:18.058Z,34.70
2023-02-25T07:38:19.138Z,34.60
2023-02-25T07:39:18.039Z,26.60
2023-02-25T07:40:18.019Z,30.90
2023-02-25T07:41:18.038Z,32.70
2023-02-25T07:42:18.009Z,37.60
2023-02-25T07:43:18.031Z,33.60
2023-02-25T07:44:18.016Z,30.70
2023-02-25T07:45:17.981Z,34.50
2023-02-25T07:46:18.095Z,43.40
2023-02-25T07:47:17.964Z,41.30
2023-02-25T07:48:17.998Z,43.40
2023-02-25T07:49:17.932Z,47.60
2023-02-25T07:50:17.952Z,31.60
2023-02-25T07:51:17.942Z,25.00
2023-02-25T07:52:17.904Z,33.10
2023-02-25T07:53:17.902Z,27.20
2023-02-25T07:54:17.880Z,24.70
2023-02-25T07:55:17.878Z,30.40
2023-02-25T07:56:17.886Z,43.70
2023-02-25T07:57:17.853Z,56.60
2023-02-25T07:58:17.841Z,51.30
2023-02-25T07:59:17.873Z,54.30
2023-02-25T08:00:17.829Z,26.50
2023-02-25T08:01:17.896Z,21.60
2023-02-25T08:02:17.829Z,22.80
2023-02-25T08:03:17.798Z,26.40
2023-02-25T08:04:17.806Z,35.30
2023-02-25T08:05:17.797Z,45.30
2023-02-25T08:06:17.811Z,59.50
2023-02-25T08:07:17.800Z,57.00
2023-02-25T08:08:17.752Z,46.40
2023-02-25T08:09:17.744Z,50.50
2023-02-25T08:10:17.717Z,50.50
2023-02-25T08:11:17.739Z,45.40
2023-02-25T08:12:17.696Z,47.20
2023-02-25T08:13:17.709Z,45.80
2023-02-25T08:14:17.704Z,40.20
2023-02-25T08:15:17.907Z,36.50
2023-02-25T08:16:17.770Z,44.30
2023-02-25T08:17:17.661Z,43.70
2023-02-25T08:18:17.641Z,55.30
2023-02-25T08:19:17.631Z,39.60
2023-02-25T08:20:17.617Z,39.30
2023-02-25T08:21:17.639Z,46.90
2023-02-25T08:22:17.593Z,56.80
2023-02-25T08:23:17.590Z,51.90
2023-02-25T08:24:19.121Z,54.70
2023-02-25T08:25:17.567Z,62.60
2023-02-25T08:26:17.575Z,68.60
2023-02-25T08:27:17.549Z,72.50
2023-02-25T08:28:17.531Z,81.60
2023-02-25T08:29:17.530Z,86.10
2023-02-25T08:30:17.524Z,68.90
2023-02-25T08:31:17.606Z,51.60
2023-02-25T08:32:17.708Z,46.50
2023-02-25T08:33:17.489Z,49.40
2023-02-25T08:34:17.476Z,36.00
2023-02-25T08:35:17.491Z,43.90
2023-02-25T08:36:17.506Z,54.10
2023-02-25T08:37:17.463Z,54.10
2023-02-25T08:38:17.428Z,54.50
2023-02-25T08:39:17.425Z,52.10
2023-02-25T08:40:19.838Z,49.00
2023-02-25T08:41:17.426Z,53.00
2023-02-25T08:42:17.422Z,58.10
2023-02-25T08:43:17.393Z,58.50
2023-02-25T08:44:17.372Z,66.20
2023-02-25T08:45:17.372Z,68.70
2023-02-25T08:46:19.330Z,65.40
2023-02-25T08:47:17.369Z,46.10
2023-02-25T08:48:17.375Z,38.70
2023-02-25T08:49:17.322Z,39.30
2023-02-25T08:50:17.317Z,47.30
2023-02-25T08:51:17.309Z,53.60
2023-02-25T08:52:17.354Z,47.20
2023-02-25T08:53:17.309Z,59.40
2023-02-25T08:54:17.267Z,55.60
2023-02-25T08:55:17.258Z,44.30
2023-02-25T08:56:17.263Z,41.30
2023-02-25T08:57:17.266Z,49.50
2023-02-25T08:58:17.223Z,51.40
2023-02-25T08:59:17.231Z,67.60
2023-02-25T09:00:17.218Z,67.00
2023-02-25T09:01:17.302Z,41.20
2023-02-25T09:02:17.244Z,41.10
2023-02-25T09:03:17.195Z,29.00
2023-02-25T09:04:17.249Z,18.80
2023-02-25T09:05:19.586Z,20.50
2023-02-25T09:06:17.146Z,17.10
2023-02-25T09:07:17.177Z,12.60
2023-02-25T09:08:17.123Z,8.30
2023-02-25T09:09:17.130Z,18.70
2023-02-25T09:10:17.109Z,14.10
2023-02-25T09:11:17.108Z,19.40
2023-02-25T09:12:17.117Z,28.10
2023-02-25T09:13:17.076Z,32.70
2023-02-25T09:14:17.067Z,25.40
2023-02-25T09:15:17.067Z,28.40
2023-02-25T09:16:17.080Z,31.10
2023-02-25T09:17:17.065Z,20.80
2023-02-25T09:18:17.036Z,27.50
2023-02-25T09:19:17.013Z,28.70
2023-02-25T09:20:17.004Z,28.40
2023-02-25T09:21:17.036Z,26.10
2023-02-25T09:22:17.071Z,26.20
2023-02-25T09:23:16.979Z,31.60
2023-02-25T09:24:16.977Z,23.90
2023-02-25T09:25:16.958Z,32.70
2023-02-25T09:26:16.956Z,37.40
2023-02-25T09:27:16.958Z,38.40
2023-02-25T09:28:16.935Z,37.70
2023-02-25T09:29:16.962Z,20.40
2023-02-25T09:30:16.928Z,10.30
2023-02-25T09:31:17.129Z,8.00
2023-02-25T09:32:17.062Z,10.00
2023-02-25T09:33:16.876Z,11.50
2023-02-25T09:34:16.865Z,14.70
2023-02-25T09:35:16.882Z,15.00
2023-02-25T09:36:16.842Z,8.00
2023-02-25T09:37:16.886Z,13.40
2023-02-25T09:38:16.818Z,15.90
2023-02-25T09:39:16.812Z,19.80
2023-02-25T09:40:16.817Z,19.50
2023-02-25T09:41:16.799Z,16.30
2023-02-25T09:42:16.771Z,18.00
2023-02-25T09:43:16.795Z,21.90
2023-02-25T09:44:16.770Z,31.40
2023-02-25T09:45:16.779Z,38.00
2023-02-25T09:46:16.821Z,48.40
2023-02-25T09:47:16.793Z,36.60
2023-02-25T09:48:16.740Z,18.40
2023-02-25T09:49:16.720Z,16.00
2023-02-25T09:50:16.703Z,15.20
2023-02-25T09:51:16.694Z,18.40
2023-02-25T09:52:16.678Z,24.90
2023-02-25T09:53:16.706Z,31.50
2023-02-25T09:54:16.718Z,38.80
2023-02-25T09:55:16.654Z,30.60
2023-02-25T09:56:16.640Z,45.30
2023-02-25T09:57:16.635Z,22.60
2023-02-25T09:58:16.648Z,25.80
2023-02-25T09:59:16.628Z,99.20
2023-02-25T10:00:16.591Z,20.10
2023-02-25T10:01:16.607Z,12.30
2023-02-25T10:02:16.661Z,4.90
2023-02-25T10:03:16.729Z,5.80
2023-02-25T10:04:16.579Z,7.10
2023-02-25T10:05:16.553Z,5.30
2023-02-25T10:06:16.549Z,7.20
2023-02-25T10:07:16.536Z,4.60
2023-02-25T10:08:16.545Z,10.80
2023-02-25T10:09:16.502Z,5.90
2023-02-25T10:10:16.490Z,7.10
2023-02-25T10:11:16.512Z,5.10
2023-02-25T10:12:16.824Z,5.10
2023-02-25T10:13:16.486Z,3.00
2023-02-25T10:14:16.467Z,5.60
2023-02-25T10:15:16.469Z,6.30
2023-02-25T10:16:16.472Z,5.60
2023-02-25T10:17:16.430Z,2.30
2023-02-25T10:18:16.444Z,3.30
2023-02-25T10:19:16.404Z,1.20
2023-02-25T10:20:16.416Z,6.60
2023-02-25T10:21:16.450Z,15.00
2023-02-25T10:22:16.369Z,4.00
2023-02-25T10:23:16.421Z,4.20
2023-02-25T10:24:16.377Z,2.40
2023-02-25T10:25:16.360Z,3.50
2023-02-25T10:26:16.347Z,3.10
2023-02-25T10:27:16.320Z,2.60
2023-02-25T10:28:16.357Z,3.40
2023-02-25T10:29:16.311Z,5.40
2023-02-25T10:30:16.291Z,4.00
2023-02-25T10:31:16.451Z,3.10
2023-02-25T10:32:16.507Z,1.70
2023-02-25T10:33:16.284Z,2.20
2023-02-25T10:34:16.295Z,4.30
2023-02-25T10:35:16.235Z,5.10
2023-02-25T10:36:16.224Z,0.70
2023-02-25T10:37:16.224Z,2.90
2023-02-25T10:38:16.203Z,5.60
2023-02-25T10:39:16.222Z,1.40
2023-02-25T10:40:16.226Z,5.40
2023-02-25T10:41:16.230Z,7.00
2023-02-25T10:42:16.174Z,2.60
2023-02-25T10:43:16.158Z,8.40
2023-02-25T10:44:16.228Z,4.70
2023-02-25T10:45:16.148Z,1.80
2023-02-25T10:46:16.231Z,6.70
2023-02-25T10:47:16.113Z,1.00
2023-02-25T10:48:16.170Z,1.40
2023-02-25T10:49:16.589Z,1.80
2023-02-25T10:50:16.098Z,1.90
2023-02-25T10:51:16.122Z,2.40
2023-02-25T10:52:16.069Z,0.30
2023-02-25T10:53:16.067Z,2.00
2023-02-25T10:54:16.089Z,2.40
2023-02-25T10:55:16.053Z,1.20
2023-02-25T10:56:16.050Z,2.90
2023-02-25T10:57:16.001Z,7.80
2023-02-25T10:58:16.006Z,1.00
2023-02-25T10:59:16.078Z,1.30
2023-02-25T11:00:15.985Z,1.30
2023-02-25T11:01:16.103Z,2.20
2023-02-25T11:02:15.963Z,3.30
2023-02-25T11:03:15.937Z,3.30
2023-02-25T11:04:15.961Z,1.70
2023-02-25T11:05:15.931Z,0.60
2023-02-25T11:06:15.938Z,2.10
2023-02-25T11:07:15.904Z,2.00
2023-02-25T11:08:15.930Z,1.50
2023-02-25T11:09:15.902Z,3.10
2023-02-25T11:10:15.896Z,1.30
2023-02-25T11:11:15.861Z,1.50
2023-02-25T11:12:15.879Z,1.80
2023-02-25T11:13:15.852Z,2.70
2023-02-25T11:14:16.046Z,3.60
2023-02-25T11:15:15.855Z,2.50
2023-02-25T11:16:15.973Z,3.00
2023-02-25T11:17:15.819Z,1.30
2023-02-25T11:18:15.831Z,0.90
2023-02-25T11:19:15.775Z,3.70
2023-02-25T11:20:24.743Z,1.70
2023-02-25T11:21:22.610Z,6.40
2023-02-25T11:22:15.771Z,3.30
2023-02-25T11:23:22.256Z,7.80
2023-02-25T11:24:15.756Z,2.50
2023-02-25T11:25:15.816Z,1.50
2023-02-25T11:26:15.713Z,2.40
2023-02-25T11:27:15.692Z,1.50
2023-02-25T11:28:15.718Z,1.90
2023-02-25T11:29:15.740Z,4.00
2023-02-25T11:30:15.777Z,6.30
2023-02-25T11:31:15.850Z,1.80
2023-02-25T11:32:16.367Z,0.90
2023-02-25T11:33:15.642Z,1.30
2023-02-25T11:34:15.626Z,4.60
2023-02-25T11:35:17.256Z,4.00
2023-02-25T11:36:15.791Z,2.10
2023-02-25T11:37:15.639Z,2.50
2023-02-25T11:38:15.661Z,2.90
2023-02-25T11:39:15.581Z,2.30
2023-02-25T11:40:15.635Z,4.70
2023-02-25T11:41:15.547Z,2.80
2023-02-25T11:42:15.569Z,2.10
2023-02-25T11:43:15.603Z,2.50
2023-02-25T11:44:15.521Z,7.60
2023-02-25T11:45:15.532Z,1.10
2023-02-25T11:46:15.532Z,11.10
2023-02-25T11:47:15.504Z,0.20
2023-02-25T11:48:15.552Z,1.60
2023-02-25T11:49:15.473Z,1.70
2023-02-25T11:50:15.548Z,2.70
2023-02-25T11:51:15.450Z,0.20
2023-02-25T11:52:15.465Z,2.70
2023-02-25T11:53:15.506Z,3.30
2023-02-25T11:54:15.428Z,3.40
2023-02-25T11:55:23.332Z,1.20
2023-02-25T11:56:15.398Z,1.60
2023-02-25T11:57:15.384Z,3.40
2023-02-25T11:58:15.371Z,1.30
2023-02-25T11:59:21.885Z,1.60
2023-02-25T12:00:15.376Z,0.70
2023-02-25T12:01:15.353Z,1.70
2023-02-25T12:02:15.332Z,3.20
2023-02-25T12:03:15.318Z,1.50
2023-02-25T12:04:15.417Z,1.40
2023-02-25T12:05:15.335Z,2.90
2023-02-25T12:06:15.283Z,2.20
2023-02-25T12:07:15.279Z,2.40
2023-02-25T12:08:15.343Z,3.00
2023-02-25T12:09:15.259Z,1.40
2023-02-25T12:10:15.312Z,7.70
2023-02-25T12:11:15.284Z,4.40
2023-02-25T12:12:15.248Z,0.80
2023-02-25T12:13:15.208Z,0.50
2023-02-25T12:14:15.251Z,2.10
2023-02-25T12:15:15.234Z,1.90
2023-02-25T12:16:15.312Z,0.60
2023-02-25T12:17:15.185Z,1.40
2023-02-25T12:18:15.169Z,1.10
2023-02-25T12:19:15.235Z,3.50
2023-02-25T12:20:15.283Z,1.60
2023-02-25T12:21:15.185Z,2.40
2023-02-25T12:22:15.332Z,0.30
2023-02-25T12:23:15.133Z,2.40
2023-02-25T12:24:15.144Z,1.00
2023-02-25T12:25:15.158Z,1.50
2023-02-25T12:26:15.079Z,0.70
2023-02-25T12:27:15.067Z,1.80
2023-02-25T12:28:15.075Z,1.30
2023-02-25T12:29:15.076Z,1.40
2023-02-25T12:30:15.259Z,0.40
2023-02-25T12:31:15.053Z,0.40
2023-02-25T12:32:15.119Z,1.50
2023-02-25T12:33:15.010Z,0.40
2023-02-25T12:34:14.998Z,0.90
2023-02-25T12:35:15.014Z,0.70
2023-02-25T12:36:14.977Z,0.60
2023-02-25T12:37:14.974Z,1.00
2023-02-25T12:38:14.988Z,1.80
2023-02-25T12:39:15.000Z,2.10
2023-02-25T12:40:14.957Z,1.90
2023-02-25T12:41:14.926Z,1.80
2023-02-25T12:42:14.920Z,1.90
2023-02-25T12:43:14.957Z,1.00
2023-02-25T12:44:14.892Z,3.70
2023-02-25T12:45:14.907Z,0.40
2023-02-25T12:46:15.026Z,0.70
2023-02-25T12:47:14.863Z,0.00
2023-02-25T12:48:14.856Z,1.10
2023-02-25T12:49:14.863Z,2.20
2023-02-25T12:50:14.943Z,0.90
2023-02-25T12:51:14.861Z,0.90
2023-02-25T12:52:17.315Z,0.80
2023-02-25T12:53:14.803Z,0.10
2023-02-25T12:54:14.795Z,1.30
2023-02-25T12:55:14.805Z,1.00
2023-02-25T12:56:14.886Z,0.30
2023-02-25T12:57:14.776Z,0.40
2023-02-25T12:58:16.575Z,0.50
2023-02-25T12:59:14.754Z,0.50
2023-02-25T13:00:14.746Z,1.80